Time;durP1;ratioP1;P1;durP2;ratioP2;P2;SDS_P1;SDS_P2;PMS_P1;PMS_P2;Temp;Humidity;BMP_temperature;BMP_pressure;BME280_temperature;BME280_humidity;BME280_pressure;Samples;Min_cycle;Max_cycle;Signal;HPM_P1;HPM_P2
2024/03/31 00:02:09;;;;;;;11.23;3.40;;;8.90;99.90;;;;;;5072956;28;20331;-65
2024/03/31 00:04:35;;;;;;;9.27;3.03;;;8.90;99.90;;;;;;5072920;28;20041;-65
2024/03/31 00:07:02;;;;;;;7.93;3.47;;;8.90;99.90;;;;;;5072510;28;20070;-65
2024/03/31 00:09:28;;;;;;;10.27;3.40;;;8.90;99.90;;;;;;5057581;28;20087;-65
2024/03/31 00:11:54;;;;;;;9.55;3.50;;;8.90;99.90;;;;;;5052655;28;20040;-65
2024/03/31 00:14:20;;;;;;;11.13;3.90;;;8.90;99.90;;;;;;5052866;28;20041;-65
2024/03/31 00:16:46;;;;;;;5.65;3.05;;;8.80;99.90;;;;;;5052124;28;20053;-66
2024/03/31 00:19:11;;;;;;;8.70;3.10;;;8.80;99.90;;;;;;5052494;28;20033;-65
2024/03/31 00:21:37;;;;;;;8.38;3.42;;;8.80;99.90;;;;;;5052726;28;20457;-65
2024/03/31 00:24:03;;;;;;;12.18;3.50;;;8.80;99.90;;;;;;5052636;28;20045;-65
2024/03/31 00:26:29;;;;;;;9.52;3.72;;;8.80;99.90;;;;;;5052881;28;20052;-65
2024/03/31 00:28:55;;;;;;;7.20;3.35;;;8.80;99.90;;;;;;5052561;28;20099;-66
2024/03/31 00:31:20;;;;;;;8.48;3.00;;;8.70;99.90;;;;;;5036363;28;20044;-66
2024/03/31 00:33:46;;;;;;;13.93;3.60;;;8.70;99.90;;;;;;5052777;28;20091;-66
2024/03/31 00:36:12;;;;;;;13.48;3.58;;;8.70;99.90;;;;;;5052722;28;20041;-66
2024/03/31 00:38:38;;;;;;;11.68;4.25;;;8.70;99.90;;;;;;5036301;28;20041;-66
2024/03/31 00:41:04;;;;;;;11.80;3.58;;;8.70;99.90;;;;;;5052586;28;20114;-66
2024/03/31 00:43:30;;;;;;;9.55;3.67;;;8.60;99.90;;;;;;5052323;28;20048;-66
2024/03/31 00:45:56;;;;;;;13.35;4.00;;;8.60;99.90;;;;;;5035618;28;20072;-66
2024/03/31 00:48:22;;;;;;;9.18;4.10;;;8.60;99.90;;;;;;5035075;28;20033;-66
2024/03/31 00:50:48;;;;;;;10.10;4.18;;;8.50;99.90;;;;;;5035729;28;20045;-66
2024/03/31 00:53:13;;;;;;;12.02;4.20;;;8.50;99.90;;;;;;5035718;28;20037;-66
2024/03/31 00:55:39;;;;;;;10.52;3.85;;;8.50;99.90;;;;;;5052076;28;20037;-66
2024/03/31 00:58:05;;;;;;;7.63;4.15;;;8.40;99.90;;;;;;5052279;28;20041;-66
2024/03/31 01:00:32;;;;;;;8.60;4.07;;;8.40;99.90;;;;;;5035162;28;20065;-66
2024/03/31 01:02:58;;;;;;;11.70;4.28;;;8.40;99.90;;;;;;5052222;28;20053;-66
2024/03/31 01:05:24;;;;;;;11.13;4.43;;;8.40;99.90;;;;;;5035105;28;20051;-66
2024/03/31 01:07:50;;;;;;;8.88;4.45;;;8.30;99.90;;;;;;5052312;28;20112;-65
2024/03/31 01:10:15;;;;;;;11.38;4.07;;;8.30;99.90;;;;;;5035434;28;20425;-66
2024/03/31 01:12:43;;;;;;;11.85;4.40;;;8.30;99.90;;;;;;5035766;28;20086;-65
2024/03/31 01:15:14;;;;;;;11.52;4.70;;;8.20;99.90;;;;;;5036040;28;20045;-65
2024/03/31 01:17:40;;;;;;;12.18;4.45;;;8.20;99.90;;;;;;5035046;28;20242;-65
2024/03/31 01:20:06;;;;;;;9.40;4.10;;;8.20;99.90;;;;;;5052026;28;20041;-65
2024/03/31 01:22:32;;;;;;;15.32;4.50;;;8.10;99.90;;;;;;5035138;28;20045;-66
2024/03/31 01:24:57;;;;;;;12.32;4.50;;;8.10;99.90;;;;;;5035311;28;20053;-66
2024/03/31 01:27:24;;;;;;;12.25;4.80;;;8.10;99.90;;;;;;5035161;28;20076;-65
2024/03/31 01:29:50;;;;;;;13.20;4.57;;;8.10;99.90;;;;;;5035375;28;20040;-66
2024/03/31 01:32:16;;;;;;;10.45;5.47;;;8.00;99.90;;;;;;5049944;28;20041;-66
2024/03/31 01:34:44;;;;;;;10.63;5.22;;;8.00;99.90;;;;;;5044467;28;20036;-66
2024/03/31 01:37:10;;;;;;;11.35;4.75;;;8.00;99.90;;;;;;5049351;28;20048;-66
2024/03/31 01:39:36;;;;;;;12.60;4.72;;;7.90;99.90;;;;;;5032431;28;20034;-65
2024/03/31 01:42:01;;;;;;;10.82;4.90;;;7.90;99.90;;;;;;5032170;28;20057;-63
2024/03/31 01:44:27;;;;;;;13.63;4.70;;;7.90;99.90;;;;;;5031641;28;20049;-64
2024/03/31 01:46:53;;;;;;;11.68;5.28;;;7.80;99.90;;;;;;5031910;28;20096;-66
2024/03/31 01:49:19;;;;;;;11.95;4.63;;;7.80;99.90;;;;;;5031774;28;20044;-67
2024/03/31 01:51:44;;;;;;;8.88;4.40;;;7.70;99.90;;;;;;5031925;28;20080;-67
2024/03/31 01:54:10;;;;;;;8.80;4.45;;;7.70;99.90;;;;;;5031642;28;20540;-67
2024/03/31 01:56:37;;;;;;;13.57;4.25;;;7.70;99.90;;;;;;5048756;28;20045;-66
2024/03/31 01:59:03;;;;;;;7.95;4.30;;;7.70;99.90;;;;;;5031695;28;20536;-64
2024/03/31 02:01:29;;;;;;;12.73;4.22;;;7.60;99.90;;;;;;5034225;28;20034;-66
2024/03/31 02:03:55;;;;;;;11.70;4.75;;;7.60;99.90;;;;;;5035353;28;20410;-63
2024/03/31 02:06:21;;;;;;;11.02;4.38;;;7.50;99.90;;;;;;5034889;28;20136;-63
2024/03/31 02:08:47;;;;;;;11.55;4.40;;;7.50;99.90;;;;;;5034864;28;20041;-63
2024/03/31 02:11:13;;;;;;;9.63;4.18;;;7.50;99.90;;;;;;5035498;28;20087;-63
2024/03/31 02:13:39;;;;;;;12.10;4.28;;;7.50;99.90;;;;;;5052140;28;20391;-65
2024/03/31 02:16:04;;;;;;;10.70;4.57;;;7.40;99.90;;;;;;5034592;28;20052;-62
2024/03/31 02:18:30;;;;;;;11.75;4.78;;;7.40;99.90;;;;;;5051865;28;20052;-62
2024/03/31 02:20:56;;;;;;;11.75;4.68;;;7.40;99.90;;;;;;5035573;28;20057;-66
2024/03/31 02:23:22;;;;;;;8.70;4.72;;;7.30;99.90;;;;;;5035373;28;20046;-64
2024/03/31 02:25:48;;;;;;;11.15;4.90;;;7.30;99.90;;;;;;5034738;28;20045;-64
2024/03/31 02:28:14;;;;;;;12.43;5.20;;;7.30;99.90;;;;;;5034553;28;20128;-63
2024/03/31 02:30:39;;;;;;;12.40;5.00;;;7.20;99.90;;;;;;5035230;28;20375;-63
2024/03/31 02:33:05;;;;;;;10.18;4.80;;;7.20;99.90;;;;;;5034997;28;20045;-63
2024/03/31 02:35:31;;;;;;;13.32;5.13;;;7.20;99.90;;;;;;5034720;28;20100;-66
2024/03/31 02:37:57;;;;;;;9.50;4.95;;;7.20;99.90;;;;;;5034766;28;20124;-65
2024/03/31 02:40:25;;;;;;;12.38;6.28;;;7.20;99.90;;;;;;5035364;28;20434;-67
2024/03/31 02:42:51;;;;;;;13.15;5.32;;;7.10;99.90;;;;;;5018369;28;20080;-62
2024/03/31 02:45:17;;;;;;;8.60;5.07;;;7.10;99.90;;;;;;5034589;28;20045;-62
2024/03/31 02:47:43;;;;;;;12.05;6.38;;;7.10;99.90;;;;;;5034924;28;20049;-65
2024/03/31 02:50:08;;;;;;;13.40;5.65;;;7.00;99.90;;;;;;5034544;28;20037;-65
2024/03/31 02:52:34;;;;;;;13.52;6.45;;;7.00;99.90;;;;;;5018471;28;20048;-64
2024/03/31 02:55:00;;;;;;;12.15;6.05;;;7.00;99.90;;;;;;5051392;28;20111;-64
2024/03/31 02:57:26;;;;;;;13.95;5.82;;;7.00;99.90;;;;;;5034506;28;20107;-64
2024/03/31 02:59:52;;;;;;;14.45;6.15;;;7.00;99.90;;;;;;5034510;28;20049;-64
2024/03/31 03:02:17;;;;;;;11.55;6.07;;;7.00;99.90;;;;;;5018030;28;20443;-65
2024/03/31 03:04:43;;;;;;;13.45;6.15;;;7.00;99.90;;;;;;5034863;28;20049;-64
2024/03/31 03:07:09;;;;;;;12.68;6.30;;;7.00;99.90;;;;;;5034290;28;20506;-66
2024/03/31 03:09:35;;;;;;;16.33;6.57;;;7.00;99.90;;;;;;5034300;28;20038;-66
2024/03/31 03:12:01;;;;;;;11.20;6.20;;;7.00;99.90;;;;;;5034197;28;20037;-64
2024/03/31 03:14:27;;;;;;;12.65;6.43;;;7.00;99.90;;;;;;5034116;28;20517;-67
2024/03/31 03:16:53;;;;;;;13.68;6.05;;;7.00;99.90;;;;;;5033725;28;20066;-64
2024/03/31 03:19:18;;;;;;;11.73;5.70;;;6.90;99.90;;;;;;5050462;28;20115;-64
2024/03/31 03:21:44;;;;;;;14.27;6.78;;;6.90;99.90;;;;;;5033667;28;20040;-64
2024/03/31 03:24:10;;;;;;;12.98;6.32;;;6.90;99.90;;;;;;5033791;28;20103;-65
2024/03/31 03:26:36;;;;;;;12.88;7.15;;;6.90;99.90;;;;;;5033486;28;20037;-66
2024/03/31 03:29:02;;;;;;;10.48;6.50;;;6.90;99.90;;;;;;5033666;28;20080;-65
2024/03/31 03:31:29;;;;;;;14.13;6.95;;;6.80;99.90;;;;;;5033817;28;20040;-64
2024/03/31 03:33:54;;;;;;;12.60;7.10;;;6.80;99.90;;;;;;5033711;28;20045;-63
2024/03/31 03:36:21;;;;;;;14.88;7.80;;;6.80;99.90;;;;;;5033308;28;20038;-63
2024/03/31 03:38:47;;;;;;;14.32;7.75;;;6.70;99.90;;;;;;5033398;28;20046;-67
2024/03/31 03:41:20;;;;;;;12.35;6.90;;;6.70;99.90;;;;;;5017896;28;20041;-63
2024/03/31 03:43:46;;;;;;;14.40;6.93;;;6.70;99.90;;;;;;5033365;28;20053;-67
2024/03/31 03:46:12;;;;;;;16.88;7.18;;;6.70;99.90;;;;;;5017156;28;20045;-67
2024/03/31 03:48:39;;;;;;;11.25;6.97;;;6.60;99.90;;;;;;5033234;28;20037;-66
2024/03/31 03:51:05;;;;;;;12.85;7.00;;;6.60;99.90;;;;;;5033027;28;20040;-66
2024/03/31 03:53:31;;;;;;;11.20;6.80;;;6.60;99.90;;;;;;5033381;28;20041;-66
2024/03/31 03:55:57;;;;;;;13.60;6.82;;;6.50;99.90;;;;;;5033320;28;20120;-64
2024/03/31 03:58:23;;;;;;;11.95;6.63;;;6.50;99.90;;;;;;5033358;28;20042;-63
2024/03/31 04:00:50;;;;;;;14.85;7.65;;;6.50;99.90;;;;;;5033281;28;20372;-64
2024/03/31 04:03:16;;;;;;;10.90;5.90;;;6.60;99.90;;;;;;5016715;28;20044;-65
2024/03/31 04:05:42;;;;;;;13.40;6.80;;;6.60;99.90;;;;;;5032579;28;20033;-63
2024/03/31 04:08:08;;;;;;;11.90;7.03;;;6.60;99.90;;;;;;5032859;28;20367;-63
2024/03/31 04:10:34;;;;;;;11.27;7.03;;;6.60;99.90;;;;;;5032777;28;20041;-66
2024/03/31 04:12:59;;;;;;;14.77;6.75;;;6.60;99.90;;;;;;5016746;28;20041;-64
2024/03/31 04:15:25;;;;;;;10.43;7.15;;;6.60;99.90;;;;;;5032986;28;20034;-62
2024/03/31 04:17:51;;;;;;;12.68;7.43;;;6.60;99.90;;;;;;5032883;28;20136;-66
2024/03/31 04:20:17;;;;;;;13.32;7.47;;;6.60;99.90;;;;;;5033344;28;20053;-65
2024/03/31 04:22:43;;;;;;;17.48;8.70;;;6.60;99.90;;;;;;5032604;28;20045;-63
2024/03/31 04:25:09;;;;;;;12.70;8.20;;;6.60;99.90;;;;;;5032956;28;20045;-66
2024/03/31 04:27:35;;;;;;;15.90;8.88;;;6.60;99.90;;;;;;5032883;28;20054;-64
2024/03/31 04:30:00;;;;;;;14.15;9.02;;;6.60;99.90;;;;;;5032974;28;20037;-64
2024/03/31 04:32:26;;;;;;;16.80;9.98;;;6.60;99.90;;;;;;5032872;28;20057;-64
2024/03/31 04:34:52;;;;;;;17.60;10.45;;;6.60;99.90;;;;;;5032670;28;20030;-63
2024/03/31 04:37:20;;;;;;;19.33;12.43;;;6.60;99.90;;;;;;5049465;28;20141;-65
2024/03/31 04:39:46;;;;;;;19.50;12.38;;;6.60;99.90;;;;;;5049233;28;20071;-66
2024/03/31 04:42:12;;;;;;;17.10;12.93;;;6.60;99.90;;;;;;5032895;28;20045;-66
2024/03/31 04:44:38;;;;;;;27.67;16.08;;;6.70;99.90;;;;;;5049142;28;20076;-66
2024/03/31 04:47:04;;;;;;;25.75;16.05;;;6.60;99.90;;;;;;5032623;28;20118;-66
2024/03/31 04:49:30;;;;;;;23.98;16.40;;;6.60;99.90;;;;;;5049173;28;20037;-66
2024/03/31 04:51:56;;;;;;;24.73;17.55;;;6.70;99.90;;;;;;5049552;28;20489;-67
2024/03/31 04:54:25;;;;;;;24.23;18.02;;;6.60;99.90;;;;;;5049272;28;20041;-66
2024/03/31 04:56:51;;;;;;;26.73;18.67;;;6.60;99.90;;;;;;5032472;28;20447;-66
2024/03/31 04:59:19;;;;;;;24.80;18.52;;;6.60;99.90;;;;;;5032458;28;20068;-66
2024/03/31 05:01:45;;;;;;;30.15;20.30;;;6.60;99.90;;;;;;5049258;28;20091;-65
2024/03/31 05:04:11;;;;;;;33.05;21.05;;;6.60;99.90;;;;;;5032662;28;20037;-65
2024/03/31 05:06:39;;;;;;;34.28;21.80;;;6.60;99.90;;;;;;5032506;28;20050;-63
2024/03/31 05:09:04;;;;;;;34.88;24.40;;;6.60;99.90;;;;;;5049218;28;20046;-63
2024/03/31 05:11:31;;;;;;;38.30;25.77;;;6.70;99.90;;;;;;5032483;28;20136;-63
2024/03/31 05:13:57;;;;;;;36.50;25.17;;;6.70;99.90;;;;;;5049267;28;20033;-63
2024/03/31 05:16:24;;;;;;;40.97;27.15;;;6.80;99.90;;;;;;5031968;28;20379;-66
2024/03/31 05:18:51;;;;;;;37.10;26.73;;;6.80;99.90;;;;;;5048549;28;20132;-63
2024/03/31 05:21:18;;;;;;;40.17;26.73;;;6.90;99.90;;;;;;5048602;28;20451;-63
2024/03/31 05:23:46;;;;;;;42.10;28.75;;;7.00;99.90;;;;;;5049101;28;20073;-63
2024/03/31 05:26:16;;;;;;;43.15;27.98;;;7.00;99.90;;;;;;5048514;28;20084;-63
2024/03/31 05:28:45;;;;;;;43.03;28.80;;;7.10;99.90;;;;;;5049010;28;20486;-63
2024/03/31 05:31:11;;;;;;;39.92;28.70;;;7.10;99.90;;;;;;5048870;28;20046;-63
2024/03/31 05:33:50;;;;;;;45.40;29.73;;;7.10;99.90;;;;;;5034482;28;20132;-63
2024/03/31 05:36:16;;;;;;;44.22;29.10;;;7.20;99.90;;;;;;5035015;28;20384;-63
2024/03/31 05:38:42;;;;;;;43.40;30.10;;;7.20;99.90;;;;;;5052953;28;20037;-63
2024/03/31 05:41:12;;;;;;;50.85;31.42;;;7.30;99.90;;;;;;5052732;28;20140;-63
2024/03/31 05:43:38;;;;;;;50.58;32.03;;;7.30;99.90;;;;;;5036174;28;20045;-67
2024/03/31 05:46:04;;;;;;;46.20;30.70;;;7.40;99.90;;;;;;5052567;28;20053;-67
2024/03/31 05:48:30;;;;;;;49.25;31.65;;;7.50;99.90;;;;;;5052837;28;20128;-66
2024/03/31 05:50:55;;;;;;;52.97;31.20;;;7.50;99.90;;;;;;5052231;28;20398;-67
2024/03/31 05:53:22;;;;;;;49.97;31.35;;;7.50;99.90;;;;;;5052406;28;20149;-66
2024/03/31 05:55:48;;;;;;;49.65;30.92;;;7.60;99.90;;;;;;5035429;28;20030;-66
2024/03/31 05:58:14;;;;;;;49.17;30.60;;;7.60;99.90;;;;;;5052579;28;20038;-65
2024/03/31 06:00:40;;;;;;;50.10;30.00;;;7.60;99.90;;;;;;5052059;28;20465;-65
2024/03/31 06:03:07;;;;;;;48.15;29.58;;;7.70;99.90;;;;;;5035611;28;20449;-65
2024/03/31 06:05:33;;;;;;;47.40;28.98;;;7.70;99.90;;;;;;5052607;28;20041;-63
2024/03/31 06:07:59;;;;;;;45.53;28.88;;;7.70;99.90;;;;;;5035463;28;20045;-63
2024/03/31 06:10:25;;;;;;;42.63;26.60;;;7.80;99.90;;;;;;5035522;28;20065;-63
2024/03/31 06:12:52;;;;;;;38.80;26.25;;;7.80;99.90;;;;;;5052053;28;20037;-63
2024/03/31 06:15:19;;;;;;;38.88;27.00;;;7.80;99.90;;;;;;5035097;28;20461;-63
2024/03/31 06:17:45;;;;;;;40.65;27.23;;;7.90;99.90;;;;;;5051337;28;20215;-67
2024/03/31 06:20:12;;;;;;;38.28;25.92;;;7.90;99.90;;;;;;5051372;28;20087;-66
2024/03/31 06:22:39;;;;;;;36.00;26.60;;;7.90;99.90;;;;;;5035041;28;20453;-66
2024/03/31 06:25:05;;;;;;;41.88;26.73;;;8.00;99.90;;;;;;5051926;28;20041;-66
2024/03/31 06:27:31;;;;;;;39.53;25.75;;;8.00;99.90;;;;;;5034989;28;20050;-65
2024/03/31 06:29:56;;;;;;;37.63;24.98;;;8.00;99.90;;;;;;5035045;28;20056;-63
2024/03/31 06:32:22;;;;;;;34.55;22.95;;;8.00;99.90;;;;;;5051598;28;20447;-63
2024/03/31 06:34:48;;;;;;;37.10;23.35;;;8.00;99.90;;;;;;5051018;28;20065;-63
2024/03/31 06:37:14;;;;;;;32.42;21.88;;;8.00;99.90;;;;;;5051040;28;20041;-63
2024/03/31 06:39:40;;;;;;;29.88;21.70;;;8.10;99.90;;;;;;5034613;28;20106;-63
2024/03/31 06:42:06;;;;;;;32.63;23.27;;;8.10;99.90;;;;;;5034246;28;20068;-63
2024/03/31 06:44:32;;;;;;;28.98;22.35;;;8.20;99.90;;;;;;5050847;28;20491;-66
2024/03/31 06:46:58;;;;;;;30.95;21.98;;;8.20;99.90;;;;;;5033804;28;20049;-66
2024/03/31 06:49:24;;;;;;;28.25;21.55;;;8.30;99.90;;;;;;5034209;28;20068;-66
2024/03/31 06:51:49;;;;;;;30.92;20.95;;;8.30;99.90;;;;;;5050932;28;20437;-66
2024/03/31 06:54:16;;;;;;;32.92;20.58;;;8.30;99.90;;;;;;5034639;28;20033;-66
2024/03/31 06:56:41;;;;;;;29.13;21.00;;;8.30;99.90;;;;;;5050591;28;20052;-67
2024/03/31 06:59:07;;;;;;;32.83;21.13;;;8.30;99.90;;;;;;5051237;28;20091;-65
2024/03/31 07:01:33;;;;;;;28.25;20.25;;;8.30;99.90;;;;;;5050930;28;20049;-65
2024/03/31 07:03:59;;;;;;;27.60;20.17;;;8.30;99.90;;;;;;5051233;28;20045;-66
2024/03/31 07:06:25;;;;;;;28.75;20.17;;;8.40;99.90;;;;;;5050987;28;20438;-63
2024/03/31 07:08:51;;;;;;;30.02;20.63;;;8.40;99.90;;;;;;5034484;28;20161;-63
2024/03/31 07:11:17;;;;;;;28.67;20.15;;;8.40;99.90;;;;;;5050930;28;20045;-63
2024/03/31 07:13:43;;;;;;;29.00;19.75;;;8.50;99.90;;;;;;5051040;28;20091;-64
2024/03/31 07:16:08;;;;;;;29.50;21.55;;;8.50;99.90;;;;;;5034129;28;20045;-63
2024/03/31 07:18:34;;;;;;;28.30;19.98;;;8.60;99.90;;;;;;5034253;28;20049;-67
2024/03/31 07:21:00;;;;;;;32.10;21.25;;;8.60;99.90;;;;;;5050266;28;20483;-67
2024/03/31 07:23:26;;;;;;;27.55;21.60;;;8.70;99.90;;;;;;5033591;28;20044;-67
2024/03/31 07:25:52;;;;;;;30.67;20.77;;;8.70;99.90;;;;;;5049793;28;20087;-67
2024/03/31 07:28:18;;;;;;;30.38;21.45;;;8.70;99.90;;;;;;5033696;28;20045;-66
2024/03/31 07:30:45;;;;;;;30.35;21.88;;;8.70;99.90;;;;;;5050340;28;20087;-66
2024/03/31 07:33:12;;;;;;;30.63;22.02;;;8.80;99.90;;;;;;5049957;28;20037;-66
2024/03/31 07:35:38;;;;;;;29.67;21.52;;;8.90;99.90;;;;;;5033258;28;20058;-66
2024/03/31 07:38:04;;;;;;;33.05;21.10;;;8.90;99.90;;;;;;5049663;28;20042;-66
2024/03/31 07:40:29;;;;;;;28.40;19.40;;;8.90;99.90;;;;;;5049541;28;20051;-66
2024/03/31 07:42:55;;;;;;;27.23;19.75;;;9.00;99.90;;;;;;5033224;28;20199;-67
2024/03/31 07:45:21;;;;;;;29.90;20.10;;;9.00;99.90;;;;;;5049545;28;20052;-66
2024/03/31 07:47:47;;;;;;;28.13;19.75;;;9.10;99.90;;;;;;5049700;28;20550;-68
2024/03/31 07:50:12;;;;;;;29.92;19.65;;;9.10;99.90;;;;;;5033246;28;20033;-62
2024/03/31 07:52:38;;;;;;;27.40;18.42;;;9.20;99.90;;;;;;5049565;28;20083;-62
2024/03/31 07:55:04;;;;;;;27.25;17.40;;;9.30;99.90;;;;;;5049515;28;20033;-62
2024/03/31 07:57:30;;;;;;;25.13;18.52;;;9.30;99.90;;;;;;5049332;28;20033;-63
2024/03/31 07:59:55;;;;;;;23.30;17.63;;;9.40;99.90;;;;;;5050170;28;20053;-62
2024/03/31 08:02:21;;;;;;;22.85;17.05;;;9.50;99.90;;;;;;5049622;28;20077;-65
2024/03/31 08:04:47;;;;;;;25.70;18.83;;;9.60;99.90;;;;;;5033192;28;20041;-65
2024/03/31 08:07:13;;;;;;;25.38;18.00;;;9.60;99.90;;;;;;5049374;28;20073;-66
2024/03/31 08:09:38;;;;;;;23.08;17.17;;;9.70;99.90;;;;;;5049827;28;20037;-65
2024/03/31 08:12:04;;;;;;;23.67;16.73;;;9.80;99.90;;;;;;5049683;28;20037;-66
2024/03/31 08:14:30;;;;;;;23.33;17.13;;;9.80;99.90;;;;;;5049133;28;20083;-66
2024/03/31 08:16:56;;;;;;;24.67;18.33;;;9.90;99.90;;;;;;5049038;28;20096;-66
2024/03/31 08:19:21;;;;;;;23.83;18.00;;;9.90;99.90;;;;;;5049665;28;20088;-65
2024/03/31 08:21:47;;;;;;;21.85;17.38;;;9.90;99.90;;;;;;5049566;28;20116;-66
2024/03/31 08:24:13;;;;;;;21.33;17.30;;;10.00;99.90;;;;;;5049701;28;20049;-66
2024/03/31 08:26:39;;;;;;;24.25;16.90;;;10.00;99.90;;;;;;5049330;28;20099;-66
2024/03/31 08:29:05;;;;;;;22.52;16.05;;;10.10;99.90;;;;;;5049488;28;20125;-66
2024/03/31 08:31:30;;;;;;;20.98;15.85;;;10.20;99.90;;;;;;5049188;28;20037;-65
2024/03/31 08:33:56;;;;;;;26.23;16.55;;;10.20;99.90;;;;;;5049198;28;20041;-66
2024/03/31 08:36:22;;;;;;;22.88;14.88;;;10.30;99.90;;;;;;5048991;28;20069;-66
2024/03/31 08:38:48;;;;;;;20.35;14.65;;;10.30;99.90;;;;;;5049178;28;20037;-65
2024/03/31 08:41:13;;;;;;;20.67;14.18;;;10.30;99.90;;;;;;5048990;28;20029;-65
2024/03/31 08:43:39;;;;;;;20.83;13.50;;;10.30;99.90;;;;;;5032279;28;20037;-65
2024/03/31 08:46:05;;;;;;;20.52;14.25;;;10.40;99.90;;;;;;5031827;28;20037;-65
2024/03/31 08:48:31;;;;;;;18.83;12.90;;;10.40;99.90;;;;;;5048603;28;20072;-66
2024/03/31 08:50:56;;;;;;;20.33;13.05;;;10.40;99.90;;;;;;5048759;28;20030;-65
2024/03/31 08:53:22;;;;;;;17.00;11.93;;;10.40;99.90;;;;;;5048834;28;20537;-67
2024/03/31 08:55:48;;;;;;;17.38;12.00;;;10.40;99.90;;;;;;5048311;28;20030;-66
2024/03/31 08:58:14;;;;;;;17.35;11.38;;;10.50;99.90;;;;;;5048637;28;20063;-66
2024/03/31 09:00:39;;;;;;;18.88;11.23;;;10.60;99.90;;;;;;5048766;28;20044;-62
2024/03/31 09:03:05;;;;;;;18.13;11.68;;;10.60;99.90;;;;;;5051185;28;20478;-63
2024/03/31 09:05:31;;;;;;;18.70;10.63;;;10.70;99.90;;;;;;5058482;28;20055;-63
2024/03/31 09:07:57;;;;;;;17.38;10.73;;;10.80;99.90;;;;;;5060245;28;20097;-63
2024/03/31 09:10:23;;;;;;;18.30;10.88;;;10.80;99.90;;;;;;5059581;28;20064;-63
2024/03/31 09:12:48;;;;;;;18.00;11.10;;;10.80;99.90;;;;;;5050135;28;20083;-63
2024/03/31 09:15:14;;;;;;;15.13;12.10;;;10.80;99.90;;;;;;5051570;28;20393;-66
2024/03/31 09:17:40;;;;;;;23.27;12.32;;;10.80;99.90;;;;;;5084994;28;20107;-66
2024/03/31 09:20:06;;;;;;;15.57;12.02;;;10.70;99.90;;;;;;5041934;28;20045;-66
2024/03/31 09:22:32;;;;;;;16.45;11.88;;;10.70;99.90;;;;;;5048453;28;20064;-66
2024/03/31 09:24:57;;;;;;;20.20;13.20;;;10.80;99.90;;;;;;5048055;28;20041;-66
2024/03/31 09:27:23;;;;;;;21.75;13.18;;;10.70;99.90;;;;;;5048365;28;20077;-66
2024/03/31 09:29:49;;;;;;;18.67;12.90;;;10.70;99.90;;;;;;5048569;28;20042;-66
2024/03/31 09:32:16;;;;;;;21.10;13.55;;;10.60;99.90;;;;;;5031495;28;20034;-67
2024/03/31 09:34:42;;;;;;;22.33;13.32;;;10.60;99.90;;;;;;5048640;28;20033;-67
2024/03/31 09:37:09;;;;;;;20.73;14.13;;;10.60;99.90;;;;;;5031827;28;20324;-67
2024/03/31 09:39:34;;;;;;;22.10;14.55;;;10.60;99.90;;;;;;5031682;28;20045;-67
2024/03/31 09:42:00;;;;;;;26.17;14.45;;;10.60;99.90;;;;;;5047945;28;20037;-67
2024/03/31 09:44:26;;;;;;;21.70;14.77;;;10.70;99.90;;;;;;5048445;28;20052;-67
2024/03/31 09:46:52;;;;;;;26.73;15.90;;;10.60;99.90;;;;;;5047746;28;20486;-67
2024/03/31 09:49:17;;;;;;;20.58;14.88;;;10.60;99.90;;;;;;5048424;28;20041;-67
2024/03/31 09:51:43;;;;;;;21.63;14.52;;;10.60;99.90;;;;;;5048257;28;20439;-67
2024/03/31 09:54:09;;;;;;;23.25;14.80;;;10.70;99.90;;;;;;5047990;28;20395;-67
2024/03/31 09:56:35;;;;;;;21.83;14.77;;;10.70;99.90;;;;;;5047953;28;20041;-67
2024/03/31 09:59:00;;;;;;;21.67;14.90;;;10.80;99.90;;;;;;5031879;28;20045;-67
2024/03/31 10:01:26;;;;;;;22.48;16.25;;;10.80;99.90;;;;;;5048172;28;20045;-67
2024/03/31 10:03:52;;;;;;;22.50;15.70;;;10.90;99.90;;;;;;5048303;28;20041;-68
2024/03/31 10:06:18;;;;;;;24.15;15.93;;;10.90;99.90;;;;;;5047997;28;20042;-67
2024/03/31 10:08:43;;;;;;;24.10;16.05;;;11.00;99.90;;;;;;5031673;28;20085;-67
2024/03/31 10:11:10;;;;;;;21.77;15.65;;;11.10;99.90;;;;;;5031523;28;20125;-67
2024/03/31 10:13:36;;;;;;;20.55;15.18;;;11.10;99.90;;;;;;5031162;28;20410;-66
2024/03/31 10:16:02;;;;;;;28.90;15.88;;;11.10;99.90;;;;;;5014362;28;20065;-66
2024/03/31 10:18:28;;;;;;;27.45;16.38;;;11.10;99.90;;;;;;5048311;28;20542;-67
2024/03/31 10:20:53;;;;;;;30.08;17.25;;;11.20;99.90;;;;;;5048537;28;20037;-66
2024/03/31 10:23:19;;;;;;;26.95;17.98;;;11.30;99.90;;;;;;5052192;28;20049;-67
2024/03/31 10:25:45;;;;;;;26.58;18.65;;;11.30;99.90;;;;;;5051654;28;20127;-67
2024/03/31 10:28:11;;;;;;;26.05;19.08;;;11.40;99.90;;;;;;5052099;28;20045;-67
2024/03/31 10:30:37;;;;;;;27.75;19.00;;;11.40;99.90;;;;;;5034648;28;20471;-67
2024/03/31 10:33:03;;;;;;;27.35;17.88;;;11.50;99.90;;;;;;5051667;28;20068;-67
2024/03/31 10:35:29;;;;;;;24.73;17.10;;;11.70;99.90;;;;;;5051156;28;20457;-67
2024/03/31 10:37:56;;;;;;;23.58;16.92;;;11.80;99.90;;;;;;5051790;28;20108;-67
2024/03/31 10:40:25;;;;;;;23.48;16.48;;;11.90;99.90;;;;;;5051013;28;20056;-66
2024/03/31 10:42:51;;;;;;;23.45;15.77;;;12.00;99.90;;;;;;5050964;28;20103;-67
2024/03/31 10:45:17;;;;;;;26.92;16.70;;;12.00;99.90;;;;;;5050947;28;20041;-67
2024/03/31 10:47:42;;;;;;;24.77;15.23;;;12.00;99.90;;;;;;5051138;28;20056;-69
2024/03/31 10:50:08;;;;;;;21.05;16.15;;;11.90;99.90;;;;;;5051260;28;20056;-64
2024/03/31 10:52:34;;;;;;;20.83;15.35;;;11.80;99.90;;;;;;5051133;28;20045;-64
2024/03/31 10:55:00;;;;;;;24.55;16.17;;;11.60;99.90;;;;;;5051180;28;20034;-64
2024/03/31 10:57:26;;;;;;;22.92;16.17;;;11.60;99.90;;;;;;5050701;28;20506;-64
2024/03/31 10:59:51;;;;;;;22.70;15.48;;;11.60;99.90;;;;;;5069531;28;20502;-64
2024/03/31 11:02:17;;;;;;;23.25;16.35;;;11.60;99.90;;;;;;5054133;28;20075;-63
2024/03/31 11:04:43;;;;;;;27.27;15.98;;;11.50;99.90;;;;;;5053971;28;20086;-64
2024/03/31 11:07:09;;;;;;;24.25;15.55;;;11.50;99.90;;;;;;5054148;28;20060;-64
2024/03/31 11:09:35;;;;;;;23.83;15.63;;;11.60;99.90;;;;;;5054201;28;20532;-64
2024/03/31 11:12:01;;;;;;;20.42;15.52;;;11.60;99.90;;;;;;5053113;28;20064;-64
2024/03/31 11:14:27;;;;;;;23.92;15.48;;;11.70;99.90;;;;;;5053742;28;20504;-64
2024/03/31 11:16:53;;;;;;;18.85;14.13;;;11.70;99.90;;;;;;5053114;28;20053;-64
2024/03/31 11:19:19;;;;;;;21.95;14.25;;;11.80;99.90;;;;;;5055842;28;20447;-65
2024/03/31 11:21:45;;;;;;;26.02;13.68;;;11.80;99.90;;;;;;5060681;28;20068;-62
2024/03/31 11:24:13;;;;;;;21.17;13.20;;;11.90;99.90;;;;;;5054263;28;20391;-64
2024/03/31 11:26:38;;;;;;;21.30;12.93;;;11.90;99.90;;;;;;5069820;28;20045;-64
2024/03/31 11:29:04;;;;;;;20.17;13.15;;;12.00;99.90;;;;;;5053475;28;20045;-64
2024/03/31 11:31:30;;;;;;;21.50;13.45;;;12.10;99.90;;;;;;5053096;28;20035;-64
2024/03/31 11:33:56;;;;;;;19.67;12.23;;;12.30;99.90;;;;;;5052505;28;20064;-63
2024/03/31 11:36:21;;;;;;;17.67;13.32;;;12.40;99.90;;;;;;5052697;28;20040;-65
2024/03/31 11:38:47;;;;;;;17.65;11.65;;;12.50;99.90;;;;;;5053132;28;20124;-64
2024/03/31 11:41:13;;;;;;;18.95;11.82;;;12.60;99.90;;;;;;5053131;28;20409;-64
2024/03/31 11:43:39;;;;;;;20.60;12.48;;;12.70;99.90;;;;;;5053383;28;20040;-64
2024/03/31 11:46:04;;;;;;;20.23;11.27;;;12.80;99.90;;;;;;5036097;28;20069;-63
2024/03/31 11:48:30;;;;;;;18.00;10.82;;;13.00;99.90;;;;;;5053056;28;20041;-63
2024/03/31 11:50:56;;;;;;;18.20;11.15;;;13.00;99.90;;;;;;5053208;28;20036;-63
2024/03/31 11:53:22;;;;;;;16.20;11.38;;;13.10;99.90;;;;;;5053257;28;20080;-64
2024/03/31 11:55:48;;;;;;;15.65;11.23;;;13.00;99.90;;;;;;5036507;28;20037;-64
2024/03/31 11:58:14;;;;;;;14.90;10.05;;;13.10;99.90;;;;;;5052787;28;20072;-63
2024/03/31 12:00:39;;;;;;;13.90;9.48;;;13.20;99.90;;;;;;5052997;28;20086;-63
2024/03/31 12:03:05;;;;;;;15.27;9.23;;;13.20;99.90;;;;;;5052801;28;20049;-63
2024/03/31 12:05:31;;;;;;;15.40;9.50;;;13.20;99.90;;;;;;5053132;28;20049;-63
2024/03/31 12:07:57;;;;;;;16.75;10.27;;;13.30;99.90;;;;;;5052792;28;20045;-63
2024/03/31 12:10:25;;;;;;;16.60;9.38;;;13.30;99.90;;;;;;5052519;28;20044;-64
2024/03/31 12:12:51;;;;;;;17.70;10.13;;;13.30;99.90;;;;;;5052444;28;20037;-64
2024/03/31 12:15:19;;;;;;;15.20;10.07;;;13.40;99.90;;;;;;5052620;28;20094;-64
2024/03/31 12:17:44;;;;;;;14.52;9.30;;;13.30;99.90;;;;;;5052065;28;20071;-64
2024/03/31 12:20:10;;;;;;;14.48;10.00;;;13.30;99.90;;;;;;5052402;28;20532;-70
2024/03/31 12:22:36;;;;;;;16.42;10.43;;;13.40;99.90;;;;;;5050726;28;20037;-70
2024/03/31 12:25:03;;;;;;;19.27;12.00;;;13.50;99.90;;;;;;5054702;28;20095;-66
2024/03/31 12:27:29;;;;;;;18.45;11.05;;;13.40;99.90;;;;;;5056569;28;20489;-66
2024/03/31 12:29:54;;;;;;;15.43;11.15;;;13.40;99.90;;;;;;5069962;28;20041;-64
2024/03/31 12:32:21;;;;;;;15.07;10.65;;;13.50;99.90;;;;;;5070885;28;20044;-64